createdAt,value
2023-04-09T00:02:16.568Z,102134.03
2023-04-09T00:05:02.258Z,102133.78
2023-04-09T00:07:47.525Z,102134.66
2023-04-09T00:10:32.333Z,102138.13
2023-04-09T00:13:25.352Z,102134.06
2023-04-09T00:16:16.789Z,102130.28
2023-04-09T00:19:01.882Z,102128.88
2023-04-09T00:21:48.254Z,102126.13
2023-04-09T00:24:33.227Z,102124.22
2023-04-09T00:27:18.444Z,102121.66
2023-04-09T00:30:03.713Z,102125.53
2023-04-09T00:32:49.843Z,102124.25
2023-04-09T00:35:35.134Z,102125.09
2023-04-09T00:38:20.704Z,102119.13
2023-04-09T00:41:05.843Z,102124.84
2023-04-09T00:43:50.700Z,102115.22
2023-04-09T00:46:35.675Z,102113.78
2023-04-09T00:49:21.831Z,102116.03
2023-04-09T00:52:07.632Z,102113.06
2023-04-09T00:54:53.124Z,102107.78
2023-04-09T00:57:38.221Z,102106.69
2023-04-09T01:00:23.152Z,102108.19
2023-04-09T01:03:08.684Z,102114.06
2023-04-09T01:06:02.170Z,102109.31
2023-04-09T01:08:59.196Z,102107.16
2023-04-09T01:11:56.663Z,102112.16
2023-04-09T01:14:57.038Z,102105.13
2023-04-09T01:17:50.609Z,102114.47
2023-04-09T01:20:41.700Z,102113.75
2023-04-09T01:23:37.219Z,102105.94
2023-04-09T01:27:00.175Z,102109.59
2023-04-09T01:29:47.730Z,102114.88
2023-04-09T01:32:36.096Z,102112.22
2023-04-09T01:35:21.962Z,102111.50
2023-04-09T01:38:08.093Z,102102.72
2023-04-09T01:40:55.533Z,102102.59
2023-04-09T01:43:42.410Z,102103.25
2023-04-09T01:46:28.092Z,102099.28
2023-04-09T01:49:13.620Z,102103.78
2023-04-09T01:51:59.488Z,102095.91
2023-04-09T01:54:44.332Z,102104.41
2023-04-09T01:57:29.203Z,102102.22
2023-04-09T02:00:15.323Z,102109.84
2023-04-09T02:03:10.728Z,102107.50
2023-04-09T02:06:04.663Z,102113.09
2023-04-09T02:08:52.373Z,102118.41
2023-04-09T02:11:40.318Z,102110.94
2023-04-09T02:14:26.545Z,102113.78
2023-04-09T02:17:13.411Z,102114.38
2023-04-09T02:19:58.904Z,102110.81
2023-04-09T02:22:43.814Z,102114.78
2023-04-09T02:25:28.912Z,102120.75
2023-04-09T02:28:14.182Z,102118.56
2023-04-09T02:30:59.296Z,102118.38
2023-04-09T02:33:44.178Z,102121.34
2023-04-09T02:36:29.076Z,102114.69
2023-04-09T02:39:14.255Z,102117.19
2023-04-09T02:41:59.782Z,102113.75
2023-04-09T02:44:44.677Z,102106.97
2023-04-09T02:47:30.531Z,102112.22
2023-04-09T02:50:16.060Z,102109.84
2023-04-09T02:53:01.217Z,102110.69
2023-04-09T02:55:46.044Z,102110.47
2023-04-09T02:58:30.856Z,102106.88
2023-04-09T03:01:15.765Z,102102.84
2023-04-09T03:04:01.573Z,102098.88
2023-04-09T03:06:47.021Z,102107.41
2023-04-09T03:09:31.935Z,102093.97
2023-04-09T03:12:17.085Z,102101.09
2023-04-09T03:15:01.862Z,102095.09
2023-04-09T03:17:47.103Z,102098.63
2023-04-09T03:20:32.307Z,102098.75
2023-04-09T03:23:17.199Z,102106.81
2023-04-09T03:26:06.136Z,102094.25
2023-04-09T03:28:51.618Z,102095.59
2023-04-09T03:31:37.167Z,102089.22
2023-04-09T03:34:22.141Z,102091.81
2023-04-09T03:37:07.457Z,102107.31
2023-04-09T03:39:52.184Z,102103.19
2023-04-09T03:42:37.386Z,102101.31
2023-04-09T03:45:22.175Z,102097.50
2023-04-09T03:48:07.071Z,102091.31
2023-04-09T03:50:53.449Z,102095.41
2023-04-09T03:53:39.060Z,102102.03
2023-04-09T03:56:24.054Z,102097.69
2023-04-09T03:59:08.909Z,102095.28
2023-04-09T04:01:53.821Z,102095.88
2023-04-09T04:04:38.851Z,102094.38
2023-04-09T04:07:24.007Z,102096.97
2023-04-09T04:10:09.584Z,102099.22
2023-04-09T04:12:55.070Z,102093.19
2023-04-09T04:15:41.967Z,102103.75
2023-04-09T04:18:26.727Z,102104.28
2023-04-09T04:21:15.457Z,102100.31
2023-04-09T04:24:01.308Z,102105.22
2023-04-09T04:26:46.202Z,102099.41
2023-04-09T04:29:31.209Z,102100.84
2023-04-09T04:32:16.659Z,102106.66
2023-04-09T04:35:01.556Z,102112.13
2023-04-09T04:37:50.961Z,102109.94
2023-04-09T04:40:36.680Z,102106.97
2023-04-09T04:43:21.470Z,102112.78
2023-04-09T04:46:06.531Z,102114.41
2023-04-09T04:48:51.890Z,102111.72
2023-04-09T04:51:37.189Z,102104.06
2023-04-09T04:54:22.262Z,102107.00
2023-04-09T04:57:07.420Z,102105.56
2023-04-09T04:59:52.444Z,102104.38
2023-04-09T05:02:37.391Z,102108.22
2023-04-09T05:05:22.325Z,102106.63
2023-04-09T05:08:07.162Z,102107.31
2023-04-09T05:10:55.809Z,102112.50
2023-04-09T05:13:41.346Z,102104.78
2023-04-09T05:16:26.996Z,102109.47
2023-04-09T05:19:12.356Z,102111.16
2023-04-09T05:21:57.199Z,102113.75
2023-04-09T05:24:42.171Z,102110.50
2023-04-09T05:27:27.562Z,102116.88
2023-04-09T05:30:13.681Z,102119.44
2023-04-09T05:32:58.988Z,102108.91
2023-04-09T05:35:43.820Z,102112.03
2023-04-09T05:38:28.726Z,102129.72
2023-04-09T05:41:13.599Z,102124.50
2023-04-09T05:44:00.485Z,102125.19
2023-04-09T05:46:46.027Z,102124.53
2023-04-09T05:49:31.112Z,102123.16
2023-04-09T05:52:16.918Z,102121.72
2023-04-09T05:55:01.756Z,102123.28
2023-04-09T05:57:46.462Z,102134.69
2023-04-09T06:00:31.298Z,102135.97
2023-04-09T06:03:16.463Z,102126.69
2023-04-09T06:06:01.770Z,102133.41
2023-04-09T06:08:47.429Z,102140.16
2023-04-09T06:11:32.505Z,102134.41
2023-04-09T06:14:18.720Z,102134.09
2023-04-09T06:17:03.938Z,102134.31
2023-04-09T06:19:49.236Z,102142.28
2023-04-09T06:22:34.123Z,102136.16
2023-04-09T06:25:19.159Z,102138.13
2023-04-09T06:28:04.206Z,102143.94
2023-04-09T06:30:50.193Z,102146.53
2023-04-09T06:33:35.538Z,102147.31
2023-04-09T06:36:20.406Z,102160.19
2023-04-09T06:39:06.096Z,102154.88
2023-04-09T06:41:50.927Z,102160.84
2023-04-09T06:44:36.263Z,102158.13
2023-04-09T06:47:21.299Z,102161.63
2023-04-09T06:50:06.748Z,102153.81
2023-04-09T06:52:52.142Z,102156.50
2023-04-09T06:55:37.479Z,102156.41
2023-04-09T06:58:22.411Z,102154.00
2023-04-09T07:01:07.207Z,102155.84
2023-04-09T07:03:53.241Z,102163.69
2023-04-09T07:06:38.272Z,102163.63
2023-04-09T07:09:24.064Z,102165.41
2023-04-09T07:12:08.813Z,102178.13
2023-04-09T07:14:54.591Z,102172.94
2023-04-09T07:17:39.822Z,102178.88
2023-04-09T07:20:25.387Z,102173.19
2023-04-09T07:23:11.267Z,102174.09
2023-04-09T07:25:56.603Z,102169.84
2023-04-09T07:28:42.492Z,102169.88
2023-04-09T07:31:27.827Z,102170.94
2023-04-09T07:34:12.697Z,102173.53
2023-04-09T07:36:57.485Z,102179.53
2023-04-09T07:39:42.641Z,102178.50
2023-04-09T07:42:28.086Z,102176.13
2023-04-09T07:45:12.778Z,102174.44
2023-04-09T07:47:57.637Z,102177.84
2023-04-09T07:50:42.699Z,102169.88
2023-04-09T07:53:28.367Z,102174.28
2023-04-09T07:56:14.041Z,102169.19
2023-04-09T07:58:58.917Z,102167.31
2023-04-09T08:01:44.497Z,102163.72
2023-04-09T08:04:30.248Z,102177.41
2023-04-09T08:07:15.651Z,102160.53
2023-04-09T08:10:01.327Z,102166.75
2023-04-09T08:12:47.953Z,102168.44
2023-04-09T08:15:33.110Z,102178.19
2023-04-09T08:18:18.083Z,102176.38
2023-04-09T08:21:04.795Z,102171.53
2023-04-09T08:23:50.018Z,102169.75
2023-04-09T08:26:34.876Z,102173.31
2023-04-09T08:29:19.868Z,102174.91
2023-04-09T08:32:04.768Z,102169.69
2023-04-09T08:34:49.949Z,102167.94
2023-04-09T08:37:34.706Z,102171.44
2023-04-09T08:40:19.601Z,102177.63
2023-04-09T08:43:06.772Z,102168.94
2023-04-09T08:45:52.560Z,102171.47
2023-04-09T08:48:37.909Z,102176.88
2023-04-09T08:51:24.316Z,102171.78
2023-04-09T08:54:09.348Z,102172.53
2023-04-09T08:56:54.646Z,102180.44
2023-04-09T08:59:41.621Z,102177.00
2023-04-09T09:02:26.884Z,102181.47
2023-04-09T09:05:13.457Z,102181.44
2023-04-09T09:07:58.709Z,102185.91
2023-04-09T09:10:45.917Z,102189.28
2023-04-09T09:13:30.893Z,102181.41
2023-04-09T09:16:17.246Z,102187.53
2023-04-09T09:19:02.865Z,102178.13
2023-04-09T09:21:57.190Z,102188.53
2023-04-09T09:24:50.295Z,102180.94
2023-04-09T09:27:39.748Z,102185.25
2023-04-09T09:30:27.365Z,102181.03
2023-04-09T09:33:13.017Z,102180.19
2023-04-09T09:35:58.538Z,102178.31
2023-04-09T09:38:57.482Z,102178.03
2023-04-09T09:41:43.343Z,102173.09
2023-04-09T09:44:33.392Z,102172.44
2023-04-09T09:47:22.980Z,102175.28
2023-04-09T09:50:08.956Z,102178.91
2023-04-09T09:53:03.209Z,102175.69
2023-04-09T09:55:49.408Z,102169.81
2023-04-09T09:58:40.594Z,102173.16
2023-04-09T10:01:28.675Z,102167.16
2023-04-09T10:04:16.130Z,102162.94
2023-04-09T10:07:04.258Z,102162.16
2023-04-09T10:09:51.784Z,102164.09
2023-04-09T10:12:37.169Z,102162.03
2023-04-09T10:15:23.497Z,102160.34
2023-04-09T10:18:08.961Z,102164.88
2023-04-09T10:21:12.417Z,102164.06
2023-04-09T10:23:58.219Z,102161.47
2023-04-09T10:26:46.965Z,102162.34
2023-04-09T10:29:32.038Z,102153.69
2023-04-09T10:32:23.211Z,102164.75
2023-04-09T10:35:09.371Z,102156.94
2023-04-09T10:37:54.751Z,102163.06
2023-04-09T10:40:51.168Z,102161.38
2023-04-09T10:43:37.607Z,102162.09
2023-04-09T10:46:30.145Z,102162.97
2023-04-09T10:49:23.631Z,102154.25
2023-04-09T10:52:12.210Z,102150.78
2023-04-09T10:54:59.142Z,102149.50
2023-04-09T10:57:44.250Z,102150.69
2023-04-09T11:00:29.190Z,102145.78
2023-04-09T11:03:39.553Z,102145.13
2023-04-09T11:06:29.479Z,102132.38
2023-04-09T11:09:31.518Z,102138.59
2023-04-09T11:12:17.155Z,102132.03
2023-04-09T11:15:04.725Z,102120.78
2023-04-09T11:17:52.800Z,102126.84
2023-04-09T11:20:41.332Z,102112.19
2023-04-09T11:23:28.488Z,102108.91
2023-04-09T11:26:14.229Z,102114.03
2023-04-09T11:29:06.213Z,102111.38
2023-04-09T11:31:53.854Z,102118.22
2023-04-09T11:34:39.304Z,102110.31
2023-04-09T11:37:25.889Z,102106.97
2023-04-09T11:40:18.528Z,102107.97
2023-04-09T11:43:14.039Z,102100.84
2023-04-09T11:45:59.735Z,102100.88
2023-04-09T11:48:56.840Z,102100.78
2023-04-09T11:51:44.059Z,102103.28
2023-04-09T11:54:37.276Z,102096.50
2023-04-09T11:57:23.782Z,102099.22
2023-04-09T12:00:12.528Z,102097.56
2023-04-09T12:03:05.265Z,102097.50
2023-04-09T12:05:51.328Z,102103.63
2023-04-09T12:08:37.482Z,102097.50
2023-04-09T12:11:28.573Z,102099.19
2023-04-09T12:14:16.081Z,102100.13
2023-04-09T12:17:01.319Z,102094.84
2023-04-09T12:19:49.209Z,102090.44
2023-04-09T12:22:35.291Z,102094.78
2023-04-09T12:25:20.483Z,102088.78
2023-04-09T12:28:07.886Z,102078.34
2023-04-09T12:30:53.175Z,102076.59
2023-04-09T12:33:40.214Z,102068.41
2023-04-09T12:38:56.081Z,102064.44
2023-04-09T12:41:41.305Z,102068.78
2023-04-09T12:44:26.827Z,102062.03
2023-04-09T12:47:13.252Z,102062.19
2023-04-09T12:49:58.748Z,102060.50
2023-04-09T12:52:44.680Z,102063.91
2023-04-09T12:55:32.189Z,102055.66
2023-04-09T12:58:17.736Z,102049.22
2023-04-09T13:01:04.193Z,102047.72
2023-04-09T13:03:49.707Z,102045.47
2023-04-09T13:06:34.878Z,102045.28
2023-04-09T13:09:21.394Z,102041.44
2023-04-09T13:12:06.642Z,102044.25
2023-04-09T13:14:54.895Z,102038.25
2023-04-09T13:17:40.124Z,102037.97
2023-04-09T13:20:25.365Z,102033.13
2023-04-09T13:23:10.831Z,102025.50
2023-04-09T13:25:56.437Z,102032.31
2023-04-09T13:28:41.470Z,102024.50
2023-04-09T13:31:27.291Z,102020.84
2023-04-09T13:34:12.341Z,102019.63
2023-04-09T13:36:58.787Z,102017.59
2023-04-09T13:39:44.676Z,102016.34
2023-04-09T13:42:32.341Z,102011.88
2023-04-09T13:45:24.177Z,102018.16
2023-04-09T13:48:09.452Z,102009.88
2023-04-09T13:50:54.242Z,102008.53
2023-04-09T13:53:39.138Z,102000.94
2023-04-09T13:56:24.362Z,101996.06
2023-04-09T13:59:09.312Z,102000.56
2023-04-09T14:01:55.263Z,101993.22
2023-04-09T14:04:40.811Z,101987.47
2023-04-09T14:07:25.828Z,101986.22
2023-04-09T14:10:11.009Z,101986.25
2023-04-09T14:12:56.167Z,101977.81
2023-04-09T14:15:41.968Z,101978.00
2023-04-09T14:18:26.973Z,101983.84
2023-04-09T14:21:12.374Z,101980.13
2023-04-09T14:23:57.674Z,101977.13
2023-04-09T14:26:43.043Z,101973.59
2023-04-09T14:29:28.051Z,101972.56
2023-04-09T14:32:13.108Z,101968.59
2023-04-09T14:34:58.955Z,101959.75
2023-04-09T14:37:46.762Z,101962.38
2023-04-09T14:40:32.033Z,101956.13
2023-04-09T14:43:17.676Z,101954.16
2023-04-09T14:46:03.985Z,101948.38
2023-04-09T14:48:49.044Z,101949.78
2023-04-09T14:51:34.641Z,101957.44
2023-04-09T14:54:20.660Z,101954.28
2023-04-09T14:57:05.590Z,101941.56
2023-04-09T14:59:50.344Z,101943.22
2023-04-09T15:02:36.470Z,101940.50
2023-04-09T15:05:21.914Z,101944.75
2023-04-09T15:08:07.143Z,101948.81
2023-04-09T15:10:52.110Z,101943.22
2023-04-09T15:13:39.047Z,101943.16
2023-04-09T15:16:25.910Z,101931.50
2023-04-09T15:19:11.225Z,101932.22
2023-04-09T15:21:59.063Z,101929.75
2023-04-09T15:24:43.981Z,101920.78
2023-04-09T15:27:29.572Z,101926.59
2023-04-09T15:30:14.655Z,101926.38
2023-04-09T15:33:00.776Z,101929.16
2023-04-09T15:35:45.586Z,101928.84
2023-04-09T15:38:31.066Z,101928.31
2023-04-09T15:41:17.692Z,101925.22
2023-04-09T15:44:03.116Z,101929.56
2023-04-09T15:46:48.301Z,101918.25
2023-04-09T15:49:34.984Z,101923.53
2023-04-09T15:52:20.218Z,101915.94
2023-04-09T15:55:07.044Z,101915.69
2023-04-09T15:57:52.961Z,101916.88
2023-04-09T16:00:38.122Z,101915.22
2023-04-09T16:03:23.472Z,101905.91
2023-04-09T16:06:10.364Z,101907.75
2023-04-09T16:08:56.753Z,101905.16
2023-04-09T16:11:41.823Z,101900.59
2023-04-09T16:14:26.788Z,101901.44
2023-04-09T16:17:12.867Z,101900.91
2023-04-09T16:19:58.031Z,101900.59
2023-04-09T16:22:43.005Z,101904.94
2023-04-09T16:25:27.830Z,101906.69
2023-04-09T16:28:14.970Z,101905.75
2023-04-09T16:30:59.822Z,101913.69
2023-04-09T16:33:45.383Z,101915.03
2023-04-09T16:36:33.338Z,101909.28
2023-04-09T16:39:22.767Z,101914.53
2023-04-09T16:42:07.771Z,101903.06
2023-04-09T16:44:54.960Z,101909.13
2023-04-09T16:47:40.689Z,101901.16
2023-04-09T16:50:26.122Z,101904.69
2023-04-09T16:53:11.408Z,101893.03
2023-04-09T16:55:58.383Z,101888.44
2023-04-09T16:58:44.048Z,101884.81
2023-04-09T17:01:29.648Z,101889.94
2023-04-09T17:04:15.653Z,101890.59
2023-04-09T17:07:01.595Z,101892.97
2023-04-09T17:09:46.364Z,101892.91
2023-04-09T17:12:32.500Z,101886.38
2023-04-09T17:15:17.876Z,101887.41
2023-04-09T17:18:03.642Z,101892.03
2023-04-09T17:20:49.138Z,101896.53
2023-04-09T17:23:34.506Z,101887.28
2023-04-09T17:26:20.586Z,101893.59
2023-04-09T17:29:07.469Z,101893.28
2023-04-09T17:31:53.091Z,101883.63
2023-04-09T17:34:38.674Z,101883.81
2023-04-09T17:37:24.129Z,101888.13
2023-04-09T17:40:11.038Z,101898.72
2023-04-09T17:42:57.198Z,101895.38
2023-04-09T17:45:42.312Z,101898.91
2023-04-09T17:48:29.541Z,101906.84
2023-04-09T17:51:19.345Z,101903.03
2023-04-09T17:54:05.830Z,101912.28
2023-04-09T17:56:58.365Z,101916.88
2023-04-09T17:59:44.275Z,101923.06
2023-04-09T18:02:29.991Z,101913.88
2023-04-09T18:05:18.966Z,101922.66
2023-04-09T18:08:04.760Z,101931.50
2023-04-09T18:11:04.989Z,101933.47
2023-04-09T18:13:56.181Z,101927.53
2023-04-09T18:16:42.264Z,101928.38
2023-04-09T18:19:27.347Z,101931.13
2023-04-09T18:22:12.642Z,101931.16
2023-04-09T18:24:58.420Z,101932.13
2023-04-09T18:27:43.397Z,101926.00
2023-04-09T18:30:28.793Z,101933.06
2023-04-09T18:33:14.679Z,101935.72
2023-04-09T18:36:01.168Z,101942.69
2023-04-09T18:38:47.662Z,101935.69
2023-04-09T18:41:33.900Z,101941.84
2023-04-09T18:44:19.038Z,101936.63
2023-04-09T18:47:07.336Z,101951.41
2023-04-09T18:49:54.039Z,101941.88
2023-04-09T18:52:40.090Z,101935.84
2023-04-09T18:55:25.276Z,101941.91
2023-04-09T18:58:15.920Z,101949.72
2023-04-09T19:01:08.458Z,101944.50
2023-04-09T19:03:54.757Z,101947.13
2023-04-09T19:06:45.487Z,101950.59
2023-04-09T19:09:31.508Z,101949.72
2023-04-09T19:12:20.165Z,101961.88
2023-04-09T19:15:06.852Z,101955.78
2023-04-09T19:17:57.771Z,101950.59
2023-04-09T19:20:43.627Z,101947.13
2023-04-09T19:23:29.884Z,101942.75
2023-04-09T19:26:16.603Z,101937.50
2023-04-09T19:29:01.715Z,101936.66
2023-04-09T19:31:47.158Z,101933.19
2023-04-09T19:34:31.984Z,101941.00
2023-04-09T19:37:18.740Z,101936.66
2023-04-09T19:40:04.982Z,101930.59
2023-04-09T19:42:50.074Z,101930.53
2023-04-09T19:45:38.299Z,101934.91
2023-04-09T19:48:24.427Z,101933.13
2023-04-09T19:51:19.950Z,101933.97
2023-04-09T19:54:09.826Z,101927.91
2023-04-09T19:56:54.555Z,101928.78
2023-04-09T19:59:41.273Z,101933.09
2023-04-09T20:02:26.666Z,101929.63
2023-04-09T20:05:14.905Z,101933.97
2023-04-09T20:08:00.494Z,101927.91
2023-04-09T20:10:47.486Z,101922.66
2023-04-09T20:13:35.389Z,101917.44
2023-04-09T20:16:20.822Z,101927.84
2023-04-09T20:19:07.054Z,101934.81
2023-04-09T20:21:52.691Z,101935.69
2023-04-09T20:24:38.813Z,101941.72
2023-04-09T20:27:24.506Z,101943.41
2023-04-09T20:30:10.207Z,101942.56
2023-04-09T20:32:57.823Z,101944.25
2023-04-09T20:35:43.010Z,101938.22
2023-04-09T20:38:28.345Z,101941.66
2023-04-09T20:41:15.410Z,101940.72
2023-04-09T20:44:00.702Z,101934.63
2023-04-09T20:46:46.574Z,101935.56
2023-04-09T20:49:32.433Z,101934.66
2023-04-09T20:52:17.852Z,101939.78
2023-04-09T20:57:47.691Z,101938.91
2023-04-09T21:00:33.461Z,101939.78
2023-04-09T21:03:18.427Z,101938.00
2023-04-09T21:06:03.618Z,101943.06
2023-04-09T21:08:51.661Z,101942.25
2023-04-09T21:11:36.664Z,101940.38
2023-04-09T21:14:21.646Z,101939.50
2023-04-09T21:17:06.807Z,101937.66
2023-04-09T21:19:53.086Z,101924.78
2023-04-09T21:22:40.195Z,101924.78
2023-04-09T21:25:29.298Z,101932.50
2023-04-09T21:28:14.572Z,101929.97
2023-04-09T21:30:59.656Z,101927.31
2023-04-09T21:33:44.904Z,101927.31
2023-04-09T21:36:30.183Z,101919.50
2023-04-09T21:39:15.367Z,101914.19
2023-04-09T21:42:01.247Z,101917.63
2023-04-09T21:44:45.983Z,101908.00
2023-04-09T21:47:32.065Z,101922.69
2023-04-09T21:50:17.535Z,101915.78
2023-04-09T21:53:03.158Z,101921.81
2023-04-09T21:55:48.318Z,101923.50
2023-04-09T21:58:33.176Z,101915.69
2023-04-09T22:01:28.152Z,101919.09
2023-04-09T22:04:13.802Z,101923.41
2023-04-09T22:06:58.699Z,101922.53
2023-04-09T22:09:43.458Z,101930.31
2023-04-09T22:12:28.430Z,101935.59
2023-04-09T22:15:13.456Z,101927.72
2023-04-09T22:17:58.825Z,101926.94
2023-04-09T22:20:43.798Z,101925.06
2023-04-09T22:23:29.018Z,101921.59
2023-04-09T22:26:14.462Z,101923.25
2023-04-09T22:28:59.159Z,101918.97
2023-04-09T22:31:44.951Z,101923.16
2023-04-09T22:34:30.498Z,101919.75
2023-04-09T22:37:17.021Z,101927.53
2023-04-09T22:40:02.276Z,101933.50
2023-04-09T22:42:48.794Z,101940.38
2023-04-09T22:45:33.931Z,101935.22
2023-04-09T22:48:19.688Z,101935.94
2023-04-09T22:51:04.694Z,101938.59
2023-04-09T22:53:50.887Z,101929.94
2023-04-09T22:56:36.597Z,101937.59
2023-04-09T22:59:25.066Z,101934.94
2023-04-09T23:02:12.502Z,101934.75
2023-04-09T23:04:57.844Z,101939.84
2023-04-09T23:07:42.901Z,101937.31
2023-04-09T23:10:28.417Z,101940.72
2023-04-09T23:13:18.262Z,101939.78
2023-04-09T23:16:08.023Z,101932.78
2023-04-09T23:18:53.291Z,101935.34
2023-04-09T23:21:38.675Z,101924.09
2023-04-09T23:24:23.619Z,101929.09
2023-04-09T23:27:08.545Z,101924.81
2023-04-09T23:29:53.932Z,101921.28
2023-04-09T23:32:39.249Z,101923.03
2023-04-09T23:35:24.410Z,101924.75
2023-04-09T23:38:09.265Z,101924.84
2023-04-09T23:40:54.548Z,101918.84
2023-04-09T23:43:40.539Z,101921.41
2023-04-09T23:46:25.647Z,101915.34
2023-04-09T23:49:10.884Z,101917.06
2023-04-09T23:51:55.924Z,101905.75
2023-04-09T23:54:48.959Z,101909.22
2023-04-09T23:57:34.205Z,101903.06
